sensor_id;sensor_type;location;lat;lon;timestamp;pressure;altitude;pressure_sealevel;temperature;humidity
46724;BME280;32463;48.298;11.620;2022-10-31T00:00:14;96783.66;;;8.98;100.00
46724;BME280;32463;48.298;11.620;2022-10-31T00:02:40;96783.38;;;8.92;100.00
46724;BME280;32463;48.298;11.620;2022-10-31T00:05:07;96782.44;;;8.83;100.00
46724;BME280;32463;48.298;11.620;2022-10-31T00:07:33;96781.22;;;8.77;100.00
46724;BME280;32463;48.298;11.620;2022-10-31T00:10:00;96777.41;;;8.72;100.00
46724;BME280;32463;48.298;11.620;2022-10-31T00:12:26;96784.19;;;8.63;100.00
46724;BME280;32463;48.298;11.620;2022-10-31T00:14:53;96778.75;;;8.57;100.00
46724;BME280;32463;48.298;11.620;2022-10-31T00:17:19;96785.16;;;8.53;100.00
46724;BME280;32463;48.298;11.620;2022-10-31T00:19:46;96786.38;;;8.49;100.00
46724;BME280;32463;48.298;11.620;2022-10-31T00:22:12;96789.78;;;8.49;100.00
46724;BME280;32463;48.298;11.620;2022-10-31T00:24:38;96782.81;;;8.40;100.00
46724;BME280;32463;48.298;11.620;2022-10-31T00:27:05;96786.78;;;8.44;100.00
46724;BME280;32463;48.298;11.620;2022-10-31T00:29:32;96786.94;;;8.52;100.00
46724;BME280;32463;48.298;11.620;2022-10-31T00:31:58;96782.44;;;8.44;100.00
46724;BME280;32463;48.298;11.620;2022-10-31T00:34:25;96791.25;;;8.42;100.00
46724;BME280;32463;48.298;11.620;2022-10-31T00:36:51;96794.09;;;8.39;100.00
46724;BME280;32463;48.298;11.620;2022-10-31T00:39:18;96787.19;;;8.39;100.00
46724;BME280;32463;48.298;11.620;2022-10-31T00:41:44;96794.25;;;8.47;100.00
46724;BME280;32463;48.298;11.620;2022-10-31T00:44:11;96795.91;;;8.48;100.00
46724;BME280;32463;48.298;11.620;2022-10-31T00:46:37;96799.16;;;8.50;100.00
46724;BME280;32463;48.298;11.620;2022-10-31T00:49:04;96792.91;;;8.43;100.00
46724;BME280;32463;48.298;11.620;2022-10-31T00:51:30;96787.31;;;8.38;100.00
46724;BME280;32463;48.298;11.620;2022-10-31T00:53:56;96795.06;;;8.38;100.00
46724;BME280;32463;48.298;11.620;2022-10-31T00:56:23;96790.16;;;8.35;100.00
46724;BME280;32463;48.298;11.620;2022-10-31T00:58:49;96789.56;;;8.31;100.00
46724;BME280;32463;48.298;11.620;2022-10-31T01:01:16;96784.81;;;8.27;100.00
46724;BME280;32463;48.298;11.620;2022-10-31T01:03:42;96787.38;;;8.27;100.00
46724;BME280;32463;48.298;11.620;2022-10-31T01:06:11;96783.03;;;8.27;100.00
46724;BME280;32463;48.298;11.620;2022-10-31T01:08:38;96778.16;;;8.24;100.00
46724;BME280;32463;48.298;11.620;2022-10-31T01:11:11;96780.59;;;8.26;100.00
46724;BME280;32463;48.298;11.620;2022-10-31T01:13:38;96782.22;;;8.27;100.00
46724;BME280;32463;48.298;11.620;2022-10-31T01:16:06;96776.41;;;8.25;100.00
46724;BME280;32463;48.298;11.620;2022-10-31T01:18:33;96786.72;;;8.25;100.00
46724;BME280;32463;48.298;11.620;2022-10-31T01:23:33;96784.66;;;8.19;100.00
46724;BME280;32463;48.298;11.620;2022-10-31T01:26:09;96782.09;;;8.19;100.00
46724;BME280;32463;48.298;11.620;2022-10-31T01:28:38;96790.34;;;8.13;100.00
46724;BME280;32463;48.298;11.620;2022-10-31T01:31:08;96781.66;;;8.14;100.00
46724;BME280;32463;48.298;11.620;2022-10-31T01:33:35;96785.19;;;8.13;100.00
46724;BME280;32463;48.298;11.620;2022-10-31T01:38:40;96786.81;;;8.14;100.00
46724;BME280;32463;48.298;11.620;2022-10-31T01:41:08;96778.97;;;8.25;100.00
46724;BME280;32463;48.298;11.620;2022-10-31T01:44:02;96782.38;;;8.25;100.00
46724;BME280;32463;48.298;11.620;2022-10-31T01:46:30;96784.66;;;8.19;100.00
46724;BME280;32463;48.298;11.620;2022-10-31T01:49:00;96784.41;;;8.22;100.00
46724;BME280;32463;48.298;11.620;2022-10-31T01:51:33;96778.00;;;8.26;100.00
46724;BME280;32463;48.298;11.620;2022-10-31T01:54:08;96775.59;;;8.34;100.00
46724;BME280;32463;48.298;11.620;2022-10-31T01:56:39;96782.22;;;8.27;100.00
46724;BME280;32463;48.298;11.620;2022-10-31T01:59:09;96775.16;;;8.19;100.00
46724;BME280;32463;48.298;11.620;2022-10-31T02:01:37;96780.31;;;8.19;100.00
46724;BME280;32463;48.298;11.620;2022-10-31T02:04:06;96775.28;;;8.18;100.00
46724;BME280;32463;48.298;11.620;2022-10-31T02:06:44;96771.03;;;8.07;100.00
46724;BME280;32463;48.298;11.620;2022-10-31T02:09:13;96769.09;;;7.99;100.00
46724;BME280;32463;48.298;11.620;2022-10-31T02:11:40;96771.44;;;8.02;100.00
46724;BME280;32463;48.298;11.620;2022-10-31T02:14:07;96774.81;;;8.03;100.00
46724;BME280;32463;48.298;11.620;2022-10-31T02:16:34;96782.97;;;7.98;100.00
46724;BME280;32463;48.298;11.620;2022-10-31T02:19:05;96780.56;;;8.06;100.00
46724;BME280;32463;48.298;11.620;2022-10-31T02:21:53;96781.41;;;8.17;100.00
46724;BME280;32463;48.298;11.620;2022-10-31T02:30:05;96780.78;;;8.34;100.00
46724;BME280;32463;48.298;11.620;2022-10-31T02:32:41;96776.28;;;8.36;100.00
46724;BME280;32463;48.298;11.620;2022-10-31T02:40:59;96781.13;;;8.20;100.00
46724;BME280;32463;48.298;11.620;2022-10-31T02:47:06;96784.50;;;8.10;100.00
46724;BME280;32463;48.298;11.620;2022-10-31T02:49:54;96783.84;;;8.18;100.00
46724;BME280;32463;48.298;11.620;2022-10-31T02:52:25;96789.56;;;8.22;100.00
46724;BME280;32463;48.298;11.620;2022-10-31T02:54:52;96780.19;;;8.21;100.00
46724;BME280;32463;48.298;11.620;2022-10-31T02:57:29;96787.94;;;8.21;100.00
46724;BME280;32463;48.298;11.620;2022-10-31T03:00:03;96782.22;;;8.17;100.00
46724;BME280;32463;48.298;11.620;2022-10-31T03:02:48;96779.75;;;8.16;100.00
46724;BME280;32463;48.298;11.620;2022-10-31T03:05:31;96776.75;;;8.10;100.00
46724;BME280;32463;48.298;11.620;2022-10-31T03:08:23;96783.81;;;8.08;100.00
46724;BME280;32463;48.298;11.620;2022-10-31T03:10:58;96784.34;;;8.02;100.00
46724;BME280;32463;48.298;11.620;2022-10-31T03:13:45;96784.06;;;8.05;100.00
46724;BME280;32463;48.298;11.620;2022-10-31T03:21:52;96781.63;;;7.94;100.00
46724;BME280;32463;48.298;11.620;2022-10-31T03:24:24;96786.50;;;7.97;100.00
46724;BME280;32463;48.298;11.620;2022-10-31T03:26:56;96789.38;;;7.94;100.00
46724;BME280;32463;48.298;11.620;2022-10-31T03:29:31;96790.13;;;7.85;100.00
46724;BME280;32463;48.298;11.620;2022-10-31T03:32:46;96791.91;;;7.85;100.00
46724;BME280;32463;48.298;11.620;2022-10-31T03:35:07;96790.53;;;7.81;100.00
46724;BME280;32463;48.298;11.620;2022-10-31T03:37:38;96789.78;;;7.69;100.00
46724;BME280;32463;48.298;11.620;2022-10-31T03:40:08;96786.38;;;7.68;100.00
46724;BME280;32463;48.298;11.620;2022-10-31T03:42:40;96789.38;;;7.64;100.00
46724;BME280;32463;48.298;11.620;2022-10-31T03:45:13;96787.31;;;7.58;100.00
46724;BME280;32463;48.298;11.620;2022-10-31T03:47:42;96784.16;;;7.54;100.00
46724;BME280;32463;48.298;11.620;2022-10-31T03:50:12;96786.31;;;7.49;100.00
46724;BME280;32463;48.298;11.620;2022-10-31T03:53:03;96780.03;;;7.42;100.00
46724;BME280;32463;48.298;11.620;2022-10-31T03:55:31;96781.78;;;7.41;100.00
46724;BME280;32463;48.298;11.620;2022-10-31T03:57:59;96783.22;;;7.34;100.00
46724;BME280;32463;48.298;11.620;2022-10-31T04:00:30;96780.81;;;7.33;100.00
46724;BME280;32463;48.298;11.620;2022-10-31T04:03:07;96790.56;;;7.29;100.00
46724;BME280;32463;48.298;11.620;2022-10-31T04:05:37;96779.13;;;7.22;100.00
46724;BME280;32463;48.298;11.620;2022-10-31T04:08:07;96780.31;;;7.18;100.00
46724;BME280;32463;48.298;11.620;2022-10-31T04:10:37;96779.63;;;7.16;100.00
46724;BME280;32463;48.298;11.620;2022-10-31T04:13:11;96783.13;;;7.15;100.00
46724;BME280;32463;48.298;11.620;2022-10-31T04:15:40;96782.38;;;7.24;100.00
46724;BME280;32463;48.298;11.620;2022-10-31T04:18:08;96784.59;;;7.29;100.00
46724;BME280;32463;48.298;11.620;2022-10-31T04:20:40;96786.78;;;7.33;100.00
46724;BME280;32463;48.298;11.620;2022-10-31T04:23:34;96786.63;;;7.35;100.00
46724;BME280;32463;48.298;11.620;2022-10-31T04:26:01;96787.28;;;7.27;100.00
46724;BME280;32463;48.298;11.620;2022-10-31T04:28:28;96784.53;;;7.19;100.00
46724;BME280;32463;48.298;11.620;2022-10-31T04:30:54;96789.50;;;7.32;100.00
46724;BME280;32463;48.298;11.620;2022-10-31T04:33:21;96793.56;;;7.34;100.00
46724;BME280;32463;48.298;11.620;2022-10-31T04:35:47;96791.94;;;7.33;100.00
46724;BME280;32463;48.298;11.620;2022-10-31T04:38:14;96797.94;;;7.43;100.00
46724;BME280;32463;48.298;11.620;2022-10-31T04:40:40;96789.28;;;7.44;100.00
46724;BME280;32463;48.298;11.620;2022-10-31T04:43:07;96794.19;;;7.48;100.00
46724;BME280;32463;48.298;11.620;2022-10-31T04:45:34;96794.25;;;7.36;100.00
46724;BME280;32463;48.298;11.620;2022-10-31T04:48:00;96786.34;;;7.28;100.00
46724;BME280;32463;48.298;11.620;2022-10-31T04:50:26;96789.88;;;7.27;100.00
46724;BME280;32463;48.298;11.620;2022-10-31T04:52:53;96790.56;;;7.29;100.00
46724;BME280;32463;48.298;11.620;2022-10-31T04:55:19;96791.06;;;7.23;100.00
46724;BME280;32463;48.298;11.620;2022-10-31T04:57:48;96791.31;;;7.20;100.00
46724;BME280;32463;48.298;11.620;2022-10-31T05:00:17;96790.19;;;7.13;100.00
46724;BME280;32463;48.298;11.620;2022-10-31T05:02:52;96796.53;;;7.09;100.00
46724;BME280;32463;48.298;11.620;2022-10-31T05:05:22;96791.44;;;6.98;100.00
46724;BME280;32463;48.298;11.620;2022-10-31T05:07:50;96795.56;;;6.89;100.00
46724;BME280;32463;48.298;11.620;2022-10-31T05:10:19;96790.53;;;6.88;100.00
46724;BME280;32463;48.298;11.620;2022-10-31T05:12:51;96783.75;;;6.87;100.00
46724;BME280;32463;48.298;11.620;2022-10-31T05:15:20;96790.53;;;6.88;100.00
46724;BME280;32463;48.298;11.620;2022-10-31T05:17:48;96789.84;;;6.86;100.00
46724;BME280;32463;48.298;11.620;2022-10-31T05:20:16;96782.56;;;6.91;100.00
46724;BME280;32463;48.298;11.620;2022-10-31T05:22:48;96785.72;;;6.94;100.00
46724;BME280;32463;48.298;11.620;2022-10-31T05:25:15;96785.09;;;7.02;100.00
46724;BME280;32463;48.298;11.620;2022-10-31T05:27:44;96783.63;;;7.09;100.00
46724;BME280;32463;48.298;11.620;2022-10-31T05:30:13;96780.94;;;7.10;100.00
46724;BME280;32463;48.298;11.620;2022-10-31T05:32:44;96781.31;;;7.06;100.00
46724;BME280;32463;48.298;11.620;2022-10-31T05:35:16;96776.22;;;6.95;100.00
46724;BME280;32463;48.298;11.620;2022-10-31T05:37:43;96782.06;;;6.97;100.00
46724;BME280;32463;48.298;11.620;2022-10-31T05:40:11;96773.19;;;6.90;100.00
46724;BME280;32463;48.298;11.620;2022-10-31T05:42:42;96772.19;;;6.81;100.00
46724;BME280;32463;48.298;11.620;2022-10-31T05:45:11;96781.50;;;6.72;100.00
46724;BME280;32463;48.298;11.620;2022-10-31T05:47:38;96786.91;;;6.69;100.00
46724;BME280;32463;48.298;11.620;2022-10-31T05:50:06;96784.75;;;6.74;100.00
46724;BME280;32463;48.298;11.620;2022-10-31T05:52:32;96780.97;;;6.79;100.00
46724;BME280;32463;48.298;11.620;2022-10-31T05:54:59;96776.06;;;6.75;100.00
46724;BME280;32463;48.298;11.620;2022-10-31T05:57:25;96779.59;;;6.74;100.00
46724;BME280;32463;48.298;11.620;2022-10-31T05:59:52;96771.63;;;6.78;100.00
46724;BME280;32463;48.298;11.620;2022-10-31T06:02:19;96779.84;;;6.71;100.00
46724;BME280;32463;48.298;11.620;2022-10-31T06:04:46;96777.66;;;6.67;100.00
46724;BME280;32463;48.298;11.620;2022-10-31T06:07:13;96778.91;;;6.72;100.00
46724;BME280;32463;48.298;11.620;2022-10-31T06:09:39;96779.84;;;6.71;100.00
46724;BME280;32463;48.298;11.620;2022-10-31T06:12:06;96779.28;;;6.68;100.00
46724;BME280;32463;48.298;11.620;2022-10-31T06:14:32;96783.63;;;6.67;100.00
46724;BME280;32463;48.298;11.620;2022-10-31T06:16:58;96783.63;;;6.67;100.00
46724;BME280;32463;48.298;11.620;2022-10-31T06:19:25;96784.19;;;6.71;100.00
46724;BME280;32463;48.298;11.620;2022-10-31T06:21:51;96783.25;;;6.72;100.00
46724;BME280;32463;48.298;11.620;2022-10-31T06:24:18;96782.03;;;6.76;100.00
46724;BME280;32463;48.298;11.620;2022-10-31T06:26:44;96789.88;;;6.74;100.00
46724;BME280;32463;48.298;11.620;2022-10-31T06:29:11;96792.34;;;6.76;100.00
46724;BME280;32463;48.298;11.620;2022-10-31T06:31:37;96788.00;;;6.76;100.00
46724;BME280;32463;48.298;11.620;2022-10-31T06:34:04;96793.75;;;6.80;100.00
46724;BME280;32463;48.298;11.620;2022-10-31T06:36:30;96786.59;;;6.84;100.00
46724;BME280;32463;48.298;11.620;2022-10-31T06:38:57;96785.97;;;6.91;100.00
46724;BME280;32463;48.298;11.620;2022-10-31T06:41:23;96794.16;;;6.96;100.00
46724;BME280;32463;48.298;11.620;2022-10-31T06:43:49;96786.97;;;7.00;100.00
46724;BME280;32463;48.298;11.620;2022-10-31T06:46:16;96796.06;;;7.04;100.00
46724;BME280;32463;48.298;11.620;2022-10-31T06:48:42;96795.56;;;7.10;100.00
46724;BME280;32463;48.298;11.620;2022-10-31T06:51:09;96798.34;;;7.18;100.00
46724;BME280;32463;48.298;11.620;2022-10-31T06:53:35;96797.84;;;7.24;100.00
46724;BME280;32463;48.298;11.620;2022-10-31T06:56:02;96797.47;;;7.29;100.00
46724;BME280;32463;48.298;11.620;2022-10-31T06:58:28;96798.34;;;7.39;100.00
46724;BME280;32463;48.298;11.620;2022-10-31T07:00:55;96796.63;;;7.49;100.00
46724;BME280;32463;48.298;11.620;2022-10-31T07:03:24;96800.22;;;7.58;100.00
46724;BME280;32463;48.298;11.620;2022-10-31T07:05:50;96803.50;;;7.69;100.00
46724;BME280;32463;48.298;11.620;2022-10-31T07:08:17;96795.13;;;7.77;100.00
46724;BME280;32463;48.298;11.620;2022-10-31T07:10:51;96797.63;;;7.88;100.00
46724;BME280;32463;48.298;11.620;2022-10-31T07:13:18;96807.72;;;8.01;100.00
46724;BME280;32463;48.298;11.620;2022-10-31T07:15:48;96788.72;;;8.11;100.00
46724;BME280;32463;48.298;11.620;2022-10-31T07:18:15;96802.47;;;8.22;100.00
46724;BME280;32463;48.298;11.620;2022-10-31T07:20:41;96797.22;;;8.33;100.00
46724;BME280;32463;48.298;11.620;2022-10-31T07:23:09;96802.00;;;8.47;100.00
46724;BME280;32463;48.298;11.620;2022-10-31T07:25:38;96796.44;;;8.61;100.00
46724;BME280;32463;48.298;11.620;2022-10-31T07:28:04;96797.00;;;8.74;100.00
46724;BME280;32463;48.298;11.620;2022-10-31T07:30:31;96793.03;;;8.90;100.00
46724;BME280;32463;48.298;11.620;2022-10-31T07:32:58;96792.38;;;9.07;100.00
46724;BME280;32463;48.298;11.620;2022-10-31T07:35:27;96791.66;;;9.24;100.00
46724;BME280;32463;48.298;11.620;2022-10-31T07:37:54;96790.94;;;9.41;100.00
46724;BME280;32463;48.298;11.620;2022-10-31T07:40:21;96790.59;;;9.64;100.00
46724;BME280;32463;48.298;11.620;2022-10-31T07:42:50;96792.06;;;9.76;100.00
46724;BME280;32463;48.298;11.620;2022-10-31T07:45:20;96786.94;;;9.94;100.00
46724;BME280;32463;48.298;11.620;2022-10-31T07:47:49;96792.09;;;10.03;100.00
46724;BME280;32463;48.298;11.620;2022-10-31T07:50:19;96785.19;;;10.12;100.00
46724;BME280;32463;48.298;11.620;2022-10-31T07:52:46;96781.06;;;10.29;100.00
46724;BME280;32463;48.298;11.620;2022-10-31T07:55:13;96782.03;;;10.45;100.00
46724;BME280;32463;48.298;11.620;2022-10-31T07:57:40;96787.16;;;10.55;100.00
46724;BME280;32463;48.298;11.620;2022-10-31T08:00:09;96775.63;;;10.67;100.00
46724;BME280;32463;48.298;11.620;2022-10-31T08:02:36;96784.50;;;10.83;100.00
46724;BME280;32463;48.298;11.620;2022-10-31T08:05:02;96778.13;;;10.95;100.00
46724;BME280;32463;48.298;11.620;2022-10-31T08:07:29;96780.91;;;11.19;100.00
46724;BME280;32463;48.298;11.620;2022-10-31T08:09:56;96775.25;;;11.24;100.00
46724;BME280;32463;48.298;11.620;2022-10-31T08:12:22;96772.34;;;11.53;100.00
46724;BME280;32463;48.298;11.620;2022-10-31T08:14:49;96770.50;;;11.71;100.00
46724;BME280;32463;48.298;11.620;2022-10-31T08:17:16;96765.47;;;12.03;100.00
46724;BME280;32463;48.298;11.620;2022-10-31T08:19:42;96770.66;;;12.03;100.00
46724;BME280;32463;48.298;11.620;2022-10-31T08:22:08;96764.06;;;12.25;100.00
46724;BME280;32463;48.298;11.620;2022-10-31T08:24:35;96757.81;;;12.60;100.00
46724;BME280;32463;48.298;11.620;2022-10-31T08:27:01;96762.41;;;12.82;100.00
46724;BME280;32463;48.298;11.620;2022-10-31T08:29:28;96761.72;;;12.89;100.00
46724;BME280;32463;48.298;11.620;2022-10-31T08:31:54;96752.00;;;13.07;100.00
46724;BME280;32463;48.298;11.620;2022-10-31T08:34:21;96749.06;;;13.26;100.00
46724;BME280;32463;48.298;11.620;2022-10-31T08:36:47;96755.56;;;13.14;100.00
46724;BME280;32463;48.298;11.620;2022-10-31T08:39:13;96739.28;;;13.36;100.00
46724;BME280;32463;48.298;11.620;2022-10-31T08:41:40;96746.00;;;13.78;100.00
46724;BME280;32463;48.298;11.620;2022-10-31T08:44:06;96740.25;;;13.99;100.00
46724;BME280;32463;48.298;11.620;2022-10-31T08:46:34;96729.84;;;14.22;100.00
46724;BME280;32463;48.298;11.620;2022-10-31T08:49:01;96732.00;;;14.49;100.00
46724;BME280;32463;48.298;11.620;2022-10-31T08:51:27;96727.38;;;14.59;100.00
46724;BME280;32463;48.298;11.620;2022-10-31T08:53:53;96728.75;;;14.93;100.00
46724;BME280;32463;48.298;11.620;2022-10-31T08:56:20;96729.63;;;15.23;100.00
46724;BME280;32463;48.298;11.620;2022-10-31T08:58:47;96720.53;;;15.33;100.00
46724;BME280;32463;48.298;11.620;2022-10-31T09:01:14;96717.31;;;15.61;100.00
46724;BME280;32463;48.298;11.620;2022-10-31T09:03:40;96717.50;;;15.74;100.00
46724;BME280;32463;48.298;11.620;2022-10-31T09:06:06;96715.53;;;15.76;100.00
46724;BME280;32463;48.298;11.620;2022-10-31T09:08:34;96719.13;;;15.75;100.00
46724;BME280;32463;48.298;11.620;2022-10-31T09:11:01;96704.38;;;16.18;100.00
46724;BME280;32463;48.298;11.620;2022-10-31T09:13:29;96704.88;;;16.64;100.00
46724;BME280;32463;48.298;11.620;2022-10-31T09:15:56;96700.63;;;16.84;100.00
46724;BME280;32463;48.298;11.620;2022-10-31T09:18:24;96706.03;;;17.32;100.00
46724;BME280;32463;48.298;11.620;2022-10-31T09:20:53;96699.41;;;17.36;100.00
46724;BME280;32463;48.298;11.620;2022-10-31T09:23:22;96702.22;;;17.35;100.00
46724;BME280;32463;48.298;11.620;2022-10-31T09:25:50;96686.75;;;17.81;100.00
46724;BME280;32463;48.298;11.620;2022-10-31T09:28:19;96689.00;;;17.49;100.00
46724;BME280;32463;48.298;11.620;2022-10-31T09:30:48;96682.91;;;18.25;100.00
46724;BME280;32463;48.298;11.620;2022-10-31T09:33:15;96682.22;;;18.83;95.20
46724;BME280;32463;48.298;11.620;2022-10-31T09:35:42;96679.56;;;18.70;100.00
46724;BME280;32463;48.298;11.620;2022-10-31T09:38:16;96686.66;;;18.63;95.98
46724;BME280;32463;48.298;11.620;2022-10-31T09:40:51;96681.34;;;18.50;97.21
46724;BME280;32463;48.298;11.620;2022-10-31T09:49:05;96668.47;;;18.95;97.60
46724;BME280;32463;48.298;11.620;2022-10-31T09:51:41;96662.28;;;19.67;85.17
46724;BME280;32463;48.298;11.620;2022-10-31T09:54:14;96659.75;;;19.98;81.67
46724;BME280;32463;48.298;11.620;2022-10-31T09:56:43;96666.75;;;20.17;81.84
46724;BME280;32463;48.298;11.620;2022-10-31T09:59:25;96667.78;;;20.79;76.91
46724;BME280;32463;48.298;11.620;2022-10-31T10:01:59;96662.09;;;21.32;72.43
46724;BME280;32463;48.298;11.620;2022-10-31T10:04:59;96653.75;;;20.61;71.95
46724;BME280;32463;48.298;11.620;2022-10-31T10:10:00;96653.38;;;21.07;70.01
46724;BME280;32463;48.298;11.620;2022-10-31T10:21:03;96652.72;;;19.86;80.91
46724;BME280;32463;48.298;11.620;2022-10-31T10:23:46;96652.47;;;20.32;78.05
46724;BME280;32463;48.298;11.620;2022-10-31T10:26:19;96654.31;;;20.38;75.14
46724;BME280;32463;48.298;11.620;2022-10-31T10:29:52;96651.06;;;20.29;74.18
46724;BME280;32463;48.298;11.620;2022-10-31T10:31:48;96643.31;;;20.09;75.81
46724;BME280;32463;48.298;11.620;2022-10-31T10:34:26;96649.56;;;20.08;78.20
46724;BME280;32463;48.298;11.620;2022-10-31T10:37:03;96645.28;;;19.76;79.72
46724;BME280;32463;48.298;11.620;2022-10-31T10:39:38;96636.81;;;19.61;79.52
46724;BME280;32463;48.298;11.620;2022-10-31T10:42:13;96631.31;;;19.75;78.33
46724;BME280;32463;48.298;11.620;2022-10-31T10:44:57;96634.31;;;19.86;77.94
46724;BME280;32463;48.298;11.620;2022-10-31T10:47:43;96627.25;;;20.17;74.68
46724;BME280;32463;48.298;11.620;2022-10-31T10:50:18;96627.84;;;20.51;72.07
46724;BME280;32463;48.298;11.620;2022-10-31T10:55:45;96618.78;;;20.15;73.54
46724;BME280;32463;48.298;11.620;2022-10-31T10:58:15;96617.81;;;20.35;74.26
46724;BME280;32463;48.298;11.620;2022-10-31T11:00:46;96616.47;;;20.57;70.65
46724;BME280;32463;48.298;11.620;2022-10-31T11:03:16;96613.78;;;20.89;69.94
46724;BME280;32463;48.298;11.620;2022-10-31T11:08:32;96605.00;;;20.76;73.18
46724;BME280;32463;48.298;11.620;2022-10-31T11:11:28;96601.06;;;21.29;69.73
46724;BME280;32463;48.298;11.620;2022-10-31T11:14:13;96607.06;;;20.43;71.25
46724;BME280;32463;48.298;11.620;2022-10-31T11:16:46;96601.09;;;20.54;72.37
46724;BME280;32463;48.298;11.620;2022-10-31T11:19:16;96593.91;;;20.43;72.19
46724;BME280;32463;48.298;11.620;2022-10-31T11:21:45;96590.78;;;20.52;70.32
46724;BME280;32463;48.298;11.620;2022-10-31T11:24:18;96582.34;;;20.12;73.83
46724;BME280;32463;48.298;11.620;2022-10-31T11:26:47;96584.69;;;20.21;73.51
46724;BME280;32463;48.298;11.620;2022-10-31T11:29:22;96582.03;;;19.89;79.94
46724;BME280;32463;48.298;11.620;2022-10-31T11:31:55;96577.00;;;19.36;84.01
46724;BME280;32463;48.298;11.620;2022-10-31T11:36:49;96570.53;;;19.32;85.38
46724;BME280;32463;48.298;11.620;2022-10-31T11:39:25;96577.81;;;19.30;86.46
46724;BME280;32463;48.298;11.620;2022-10-31T11:41:54;96571.78;;;19.23;88.10
46724;BME280;32463;48.298;11.620;2022-10-31T11:44:27;96569.38;;;19.15;90.49
46724;BME280;32463;48.298;11.620;2022-10-31T11:47:00;96576.19;;;19.36;86.68
46724;BME280;32463;48.298;11.620;2022-10-31T11:51:58;96567.25;;;19.57;84.48
46724;BME280;32463;48.298;11.620;2022-10-31T11:54:28;96558.66;;;19.74;82.22
46724;BME280;32463;48.298;11.620;2022-10-31T11:56:55;96558.88;;;19.73;81.18
46724;BME280;32463;48.298;11.620;2022-10-31T11:59:27;96551.19;;;19.71;80.79
46724;BME280;32463;48.298;11.620;2022-10-31T12:01:56;96549.53;;;19.77;80.04
46724;BME280;32463;48.298;11.620;2022-10-31T12:04:51;96543.53;;;20.01;77.92
46724;BME280;32463;48.298;11.620;2022-10-31T12:07:20;96536.16;;;20.16;77.92
46724;BME280;32463;48.298;11.620;2022-10-31T12:09:46;96534.94;;;20.44;76.08
46724;BME280;32463;48.298;11.620;2022-10-31T12:15:13;96536.34;;;20.90;75.19
46724;BME280;32463;48.298;11.620;2022-10-31T12:25:38;96538.91;;;20.22;75.32
46724;BME280;32463;48.298;11.620;2022-10-31T12:28:22;96529.81;;;20.49;74.59
46724;BME280;32463;48.298;11.620;2022-10-31T12:31:33;96529.88;;;19.86;78.48
46724;BME280;32463;48.298;11.620;2022-10-31T12:45:15;96522.91;;;19.09;91.25
46724;BME280;32463;48.298;11.620;2022-10-31T12:54:10;96512.47;;;18.69;95.91
46724;BME280;32463;48.298;11.620;2022-10-31T12:58:47;96500.75;;;18.78;94.33
46724;BME280;32463;48.298;11.620;2022-10-31T13:01:43;96493.88;;;18.91;94.09
46724;BME280;32463;48.298;11.620;2022-10-31T13:06:44;96479.63;;;19.18;93.36
46724;BME280;32463;48.298;11.620;2022-10-31T13:09:18;96477.94;;;19.30;91.97
46724;BME280;32463;48.298;11.620;2022-10-31T13:11:49;96472.19;;;19.53;89.74
46724;BME280;32463;48.298;11.620;2022-10-31T13:16:51;96468.75;;;19.84;87.92
46724;BME280;32463;48.298;11.620;2022-10-31T13:19:24;96474.03;;;20.34;83.91
46724;BME280;32463;48.298;11.620;2022-10-31T13:24:53;96460.03;;;21.31;76.67
46724;BME280;32463;48.298;11.620;2022-10-31T13:27:33;96462.47;;;21.63;71.32
46724;BME280;32463;48.298;11.620;2022-10-31T13:30:14;96454.50;;;21.93;68.50
46724;BME280;32463;48.298;11.620;2022-10-31T13:33:02;96455.66;;;20.89;75.82
46724;BME280;32463;48.298;11.620;2022-10-31T13:35:46;96458.81;;;20.36;82.79
46724;BME280;32463;48.298;11.620;2022-10-31T13:38:37;96453.53;;;20.17;83.89
46724;BME280;32463;48.298;11.620;2022-10-31T13:41:18;96457.34;;;19.90;87.81
46724;BME280;32463;48.298;11.620;2022-10-31T13:46:44;96445.19;;;19.26;100.00
46724;BME280;32463;48.298;11.620;2022-10-31T13:52:25;96445.47;;;18.60;100.00
46724;BME280;32463;48.298;11.620;2022-10-31T13:54:53;96449.09;;;18.46;100.00
46724;BME280;32463;48.298;11.620;2022-10-31T13:57:38;96445.50;;;18.34;100.00
46724;BME280;32463;48.298;11.620;2022-10-31T14:02:48;96441.25;;;18.13;100.00
46724;BME280;32463;48.298;11.620;2022-10-31T14:05:32;96435.81;;;17.95;100.00
46724;BME280;32463;48.298;11.620;2022-10-31T14:08:04;96422.91;;;17.93;100.00
46724;BME280;32463;48.298;11.620;2022-10-31T14:10:46;96437.81;;;17.86;100.00
46724;BME280;32463;48.298;11.620;2022-10-31T14:15:57;96434.59;;;17.71;100.00
46724;BME280;32463;48.298;11.620;2022-10-31T14:18:38;96428.16;;;17.67;100.00
46724;BME280;32463;48.298;11.620;2022-10-31T14:23:51;96420.88;;;17.82;100.00
46724;BME280;32463;48.298;11.620;2022-10-31T14:28:53;96420.66;;;17.77;100.00
46724;BME280;32463;48.298;11.620;2022-10-31T14:31:38;96417.66;;;17.80;100.00
46724;BME280;32463;48.298;11.620;2022-10-31T14:34:35;96408.78;;;17.68;100.00
46724;BME280;32463;48.298;11.620;2022-10-31T14:40:26;96400.03;;;17.47;100.00
46724;BME280;32463;48.298;11.620;2022-10-31T14:45:45;96407.13;;;17.40;100.00
46724;BME280;32463;48.298;11.620;2022-10-31T14:51:15;96386.50;;;17.17;100.00
46724;BME280;32463;48.298;11.620;2022-10-31T14:53:53;96403.03;;;17.11;100.00
46724;BME280;32463;48.298;11.620;2022-10-31T14:56:32;96402.38;;;17.03;100.00
46724;BME280;32463;48.298;11.620;2022-10-31T14:59:08;96397.31;;;16.95;100.00
46724;BME280;32463;48.298;11.620;2022-10-31T15:01:36;96391.25;;;16.88;100.00
46724;BME280;32463;48.298;11.620;2022-10-31T15:04:14;96395.81;;;16.72;100.00